Time;durP1;ratioP1;P1;durP2;ratioP2;P2;SDS_P1;SDS_P2;PMS_P1;PMS_P2;Temp;Humidity;BMP_temperature;BMP_pressure;BME280_temperature;BME280_humidity;BME280_pressure;Samples;Min_cycle;Max_cycle;Signal;HPM_P1;HPM_P2
2022/12/24 00:00:20;;;;;;;14.40;2.25;;;10.20;99.90;;;;;;5008926;28;20033;-81
2022/12/24 00:02:46;;;;;;;14.68;2.63;;;10.20;99.90;;;;;;5006974;28;20034;-81
2022/12/24 00:05:11;;;;;;;17.75;2.83;;;10.20;99.90;;;;;;4990958;28;20034;-81
2022/12/24 00:07:37;;;;;;;17.67;3.33;;;10.20;99.90;;;;;;4989119;28;20063;-81
2022/12/24 00:10:04;;;;;;;9.13;2.00;;;10.20;99.90;;;;;;5003743;28;20101;-81
2022/12/24 00:12:29;;;;;;;22.08;4.05;;;10.20;99.90;;;;;;4975860;28;20030;-81
2022/12/24 00:14:55;;;;;;;23.60;3.28;;;10.20;99.90;;;;;;4992142;28;20529;-81
2022/12/24 00:17:22;;;;;;;11.70;3.40;;;10.20;99.90;;;;;;5010358;28;20128;-81
2022/12/24 00:19:47;;;;;;;22.35;3.08;;;10.20;99.90;;;;;;4998437;28;20100;-81
2022/12/24 00:22:13;;;;;;;21.75;3.30;;;10.20;99.90;;;;;;5006909;28;20379;-81
2022/12/24 00:24:38;;;;;;;12.20;2.72;;;10.20;99.90;;;;;;5004514;28;20087;-81
2022/12/24 00:27:05;;;;;;;9.35;2.85;;;10.10;99.90;;;;;;5002901;28;20081;-81
2022/12/24 00:29:31;;;;;;;18.13;4.50;;;10.10;99.90;;;;;;4986311;28;20088;-81
2022/12/24 00:31:57;;;;;;;23.42;3.67;;;10.10;99.90;;;;;;4994314;28;20042;-81
2022/12/24 00:34:23;;;;;;;21.33;3.47;;;10.10;99.90;;;;;;5006707;28;20087;-81
2022/12/24 00:36:48;;;;;;;19.67;2.80;;;10.10;99.90;;;;;;4992283;28;20430;-81
2022/12/24 00:39:14;;;;;;;15.07;2.72;;;10.10;99.90;;;;;;4991012;28;20508;-81
2022/12/24 00:41:40;;;;;;;19.60;3.35;;;10.10;99.90;;;;;;5004848;28;20084;-81
2022/12/24 00:44:05;;;;;;;11.07;1.77;;;10.10;99.90;;;;;;5001775;28;20041;-81
2022/12/24 00:46:32;;;;;;;8.93;1.00;;;10.10;99.90;;;;;;4980740;28;20048;-81
2022/12/24 00:48:58;;;;;;;18.40;3.65;;;10.10;99.90;;;;;;4991390;28;20045;-81
2022/12/24 00:51:24;;;;;;;6.30;2.10;;;10.10;99.90;;;;;;4987331;28;20034;-81
2022/12/24 00:53:49;;;;;;;17.60;4.50;;;10.10;99.90;;;;;;4976854;28;20040;-81
2022/12/24 00:56:15;;;;;;;12.25;2.10;;;10.10;99.90;;;;;;5002776;28;20117;-81
2022/12/24 00:58:40;;;;;;;13.15;2.67;;;10.10;99.90;;;;;;5002400;28;20038;-81
2022/12/24 01:01:06;;;;;;;24.63;3.92;;;10.10;99.90;;;;;;5004307;28;20033;-81
2022/12/24 01:03:34;;;;;;;29.17;3.85;;;10.10;99.90;;;;;;5007651;28;20514;-81
2022/12/24 01:06:07;;;;;;;14.52;3.72;;;10.10;99.90;;;;;;4979377;28;20425;-81
2022/12/24 01:08:33;;;;;;;19.85;3.22;;;10.10;99.90;;;;;;5004288;28;20029;-81
2022/12/24 01:10:59;;;;;;;20.80;3.30;;;10.00;99.90;;;;;;5003321;28;20045;-81
2022/12/24 01:13:25;;;;;;;10.90;2.60;;;10.00;99.90;;;;;;5004096;28;20498;-81
2022/12/24 01:15:51;;;;;;;23.08;3.63;;;10.00;99.90;;;;;;4982467;28;20116;-81
2022/12/24 01:18:16;;;;;;;21.35;3.33;;;10.00;99.90;;;;;;4988294;28;20033;-81
2022/12/24 01:20:42;;;;;;;24.27;3.50;;;10.00;99.90;;;;;;4990563;28;20169;-81
2022/12/24 01:23:07;;;;;;;20.60;2.38;;;9.90;99.90;;;;;;5001482;28;20026;-81
2022/12/24 01:25:33;;;;;;;17.48;2.28;;;9.90;99.90;;;;;;5007412;28;20038;-81
2022/12/24 01:27:58;;;;;;;21.40;2.92;;;9.90;99.90;;;;;;5001617;28;20045;-81
2022/12/24 01:30:24;;;;;;;32.63;3.50;;;9.90;99.90;;;;;;5001084;28;20038;-81
2022/12/24 01:32:49;;;;;;;17.70;2.78;;;9.80;99.90;;;;;;4978018;28;20104;-81
2022/12/24 01:35:15;;;;;;;32.50;4.78;;;9.90;99.90;;;;;;5002348;28;20025;-81
2022/12/24 01:37:41;;;;;;;22.83;4.03;;;9.80;99.90;;;;;;5006566;28;20044;-81
2022/12/24 01:45:45;;;;;;;20.35;3.40;;;9.80;99.90;;;;;;5000613;28;20550;-81
2022/12/24 01:48:33;;;;;;;34.33;3.25;;;9.80;99.90;;;;;;4987770;28;20061;-81
2022/12/24 01:51:15;;;;;;;12.93;3.50;;;9.80;99.90;;;;;;5005136;28;20033;-81
2022/12/24 01:53:42;;;;;;;17.35;2.13;;;9.80;99.90;;;;;;4981950;28;20534;-81
2022/12/24 01:56:08;;;;;;;12.73;2.58;;;9.80;99.90;;;;;;4973782;28;20023;-81
2022/12/24 01:58:33;;;;;;;20.15;2.92;;;9.80;99.90;;;;;;4988142;28;20061;-81
2022/12/24 02:00:59;;;;;;;17.27;2.15;;;9.70;99.90;;;;;;4974444;28;20064;-81
2022/12/24 02:03:24;;;;;;;18.92;3.97;;;9.70;99.90;;;;;;4992206;28;20084;-81
2022/12/24 02:05:51;;;;;;;21.17;2.95;;;9.70;99.90;;;;;;4977406;28;20054;-81
2022/12/24 02:08:17;;;;;;;12.95;3.22;;;9.70;99.90;;;;;;4985448;28;20048;-81
2022/12/24 02:10:43;;;;;;;19.52;3.28;;;9.70;99.90;;;;;;4990081;28;20046;-81
2022/12/24 02:13:09;;;;;;;21.27;3.90;;;9.70;99.90;;;;;;4984204;28;20053;-81
2022/12/24 02:16:05;;;;;;;15.07;2.50;;;9.70;99.90;;;;;;4985363;28;20054;-81
2022/12/24 02:19:05;;;;;;;15.77;3.78;;;9.60;99.90;;;;;;4979859;28;20654;-80
2022/12/24 02:21:53;;;;;;;32.97;5.57;;;9.60;99.90;;;;;;4968492;28;20026;-81
2022/12/24 02:24:57;;;;;;;20.02;3.88;;;9.50;99.90;;;;;;4990458;28;20038;-81
2022/12/24 02:27:33;;;;;;;21.42;3.28;;;9.50;99.90;;;;;;4978428;28;20045;-81
2022/12/24 02:30:34;;;;;;;12.23;3.45;;;9.50;99.90;;;;;;4965375;28;20030;-81
2022/12/24 02:33:24;;;;;;;21.83;4.53;;;9.50;99.90;;;;;;4978286;28;20029;-80
2022/12/24 02:36:17;;;;;;;5.43;1.83;;;9.50;99.90;;;;;;4987355;28;20532;-80
2022/12/24 02:38:59;;;;;;;20.83;5.00;;;9.60;99.90;;;;;;4979109;28;20482;-81
2022/12/24 02:42:04;;;;;;;18.08;4.05;;;9.60;99.90;;;;;;5001329;28;20121;-81
2022/12/24 02:44:12;;;;;;;21.92;3.97;;;9.60;99.90;;;;;;4999541;28;20030;-81
2022/12/24 02:46:38;;;;;;;16.15;2.47;;;9.70;99.90;;;;;;4998711;28;20040;-80
2022/12/24 02:49:03;;;;;;;22.83;3.97;;;9.60;99.90;;;;;;4990753;28;20091;-81
2022/12/24 02:51:29;;;;;;;16.88;2.67;;;9.50;99.90;;;;;;4988199;28;20060;-81
2022/12/24 02:53:54;;;;;;;33.83;5.07;;;9.50;99.90;;;;;;4975997;28;20038;-80
2022/12/24 02:56:28;;;;;;;33.00;4.53;;;9.50;99.90;;;;;;4995347;28;20034;-80
2022/12/24 02:59:52;;;;;;;16.42;2.90;;;9.50;99.90;;;;;;5006646;28;20030;-81
2022/12/24 03:02:31;;;;;;;24.48;4.85;;;9.50;99.90;;;;;;4967934;28;20026;-81
2022/12/24 03:05:09;;;;;;;22.02;2.67;;;9.50;99.90;;;;;;4983100;28;20564;-81
2022/12/24 03:07:43;;;;;;;20.27;2.90;;;9.50;99.90;;;;;;4985235;28;20033;-81
2022/12/24 03:10:41;;;;;;;14.57;1.85;;;9.50;99.90;;;;;;4980961;28;20030;-81
2022/12/24 03:13:09;;;;;;;18.70;2.85;;;9.50;99.90;;;;;;4990368;28;20549;-81
2022/12/24 03:15:35;;;;;;;8.05;2.10;;;9.50;99.90;;;;;;4988924;28;20034;-81
2022/12/24 03:18:01;;;;;;;19.92;2.88;;;9.40;99.90;;;;;;4982087;28;20037;-83
2022/12/24 03:20:38;;;;;;;16.88;2.92;;;9.40;99.90;;;;;;4972244;28;20031;-83
2022/12/24 03:23:03;;;;;;;15.05;3.40;;;9.40;99.90;;;;;;4973623;28;20511;-83
2022/12/24 03:25:29;;;;;;;6.90;2.08;;;9.40;99.90;;;;;;4985370;28;20034;-82
2022/12/24 03:27:55;;;;;;;20.35;3.40;;;9.40;99.90;;;;;;4985671;28;20096;-83
2022/12/24 03:30:21;;;;;;;16.63;3.10;;;9.40;99.90;;;;;;5002311;28;20535;-82
2022/12/24 03:32:46;;;;;;;15.25;2.72;;;9.40;99.90;;;;;;4975205;28;20026;-83
2022/12/24 03:35:12;;;;;;;14.50;2.25;;;9.40;99.90;;;;;;4997349;28;20121;-83
2022/12/24 03:37:37;;;;;;;20.58;3.65;;;9.40;99.90;;;;;;4969801;28;20477;-82
2022/12/24 03:40:04;;;;;;;12.95;3.05;;;9.40;99.90;;;;;;4980705;28;20679;-82
2022/12/24 03:42:30;;;;;;;19.35;2.35;;;9.30;99.90;;;;;;4973262;28;20033;-82
2022/12/24 03:44:55;;;;;;;16.27;2.75;;;9.30;99.90;;;;;;5007486;28;20030;-82
2022/12/24 03:47:21;;;;;;;11.85;2.47;;;9.30;99.90;;;;;;5001634;28;20188;-83
2022/12/24 03:49:46;;;;;;;9.75;1.58;;;9.40;99.90;;;;;;4991804;28;20069;-83
2022/12/24 03:52:12;;;;;;;19.27;3.35;;;9.40;99.90;;;;;;4980752;28;20249;-82
2022/12/24 03:54:38;;;;;;;20.40;2.88;;;9.40;99.90;;;;;;4972342;28;20495;-83
2022/12/24 03:57:04;;;;;;;10.32;1.95;;;9.40;99.90;;;;;;4990499;28;20038;-82
2022/12/24 03:59:31;;;;;;;23.17;4.25;;;9.50;99.90;;;;;;4980931;28;20079;-82
2022/12/24 04:01:56;;;;;;;29.95;3.50;;;9.50;99.90;;;;;;4987764;28;20030;-81
2022/12/24 04:04:22;;;;;;;12.02;2.05;;;9.50;99.90;;;;;;4991991;28;20048;-82
2022/12/24 04:06:47;;;;;;;19.05;3.03;;;9.50;99.90;;;;;;5001880;28;20183;-82
2022/12/24 04:09:13;;;;;;;28.08;3.60;;;9.50;99.90;;;;;;4996996;28;20500;-82
2022/12/24 04:11:38;;;;;;;19.42;3.00;;;9.50;99.90;;;;;;4994263;28;20038;-82
2022/12/24 04:14:04;;;;;;;22.20;3.15;;;9.40;99.90;;;;;;5002279;28;20777;-82
2022/12/24 04:16:30;;;;;;;26.95;4.75;;;9.50;99.90;;;;;;5008390;28;20143;-81
2022/12/24 04:18:55;;;;;;;20.08;2.55;;;9.60;99.90;;;;;;5010820;28;20098;-82
2022/12/24 04:21:21;;;;;;;20.30;3.55;;;9.50;99.90;;;;;;4973870;28;20033;-82
2022/12/24 04:23:46;;;;;;;11.45;2.75;;;9.50;99.90;;;;;;4989495;28;20073;-82
2022/12/24 04:26:12;;;;;;;29.67;3.05;;;9.50;99.90;;;;;;5001307;28;20412;-82
2022/12/24 04:28:38;;;;;;;18.42;3.03;;;9.50;99.90;;;;;;4985187;28;20037;-82
2022/12/24 04:31:08;;;;;;;23.55;3.00;;;9.60;99.90;;;;;;5006062;28;20449;-82
2022/12/24 04:33:34;;;;;;;22.50;2.80;;;9.50;99.90;;;;;;4989227;28;20045;-82
2022/12/24 04:36:00;;;;;;;26.00;2.88;;;9.50;99.90;;;;;;4995701;28;20397;-82
2022/12/24 04:38:26;;;;;;;22.88;2.80;;;9.50;99.90;;;;;;4974318;28;20953;-82
2022/12/24 04:41:09;;;;;;;22.38;3.60;;;9.50;99.90;;;;;;4991398;28;20033;-82
2022/12/24 04:43:35;;;;;;;12.68;1.77;;;9.50;99.90;;;;;;4993716;28;20040;-82
2022/12/24 04:46:06;;;;;;;14.55;2.50;;;9.50;99.90;;;;;;4979364;28;20033;-83
2022/12/24 04:48:31;;;;;;;14.85;2.38;;;9.50;99.90;;;;;;4978102;28;20450;-82
2022/12/24 04:50:59;;;;;;;12.00;2.28;;;9.50;99.90;;;;;;5006793;28;20140;-82
2022/12/24 04:53:24;;;;;;;17.92;2.83;;;9.60;99.90;;;;;;4986568;28;20041;-82
2022/12/24 04:55:50;;;;;;;10.90;2.10;;;9.60;99.90;;;;;;4984359;28;20042;-82
2022/12/24 04:58:16;;;;;;;11.68;2.22;;;9.60;99.90;;;;;;4990491;28;20026;-82
2022/12/24 05:00:41;;;;;;;18.85;3.13;;;9.60;99.90;;;;;;4984586;28;20034;-82
2022/12/24 05:03:07;;;;;;;10.43;2.22;;;9.60;99.90;;;;;;5001671;28;20566;-82
2022/12/24 05:05:32;;;;;;;11.15;2.28;;;9.60;99.90;;;;;;5014753;28;20477;-81
2022/12/24 05:07:58;;;;;;;12.18;1.90;;;9.60;99.90;;;;;;5003539;28;21540;-82
2022/12/24 05:10:23;;;;;;;7.35;1.98;;;9.60;99.90;;;;;;4986619;28;20187;-82
2022/12/24 05:12:49;;;;;;;5.93;1.50;;;9.60;99.90;;;;;;4986523;28;20034;-82
2022/12/24 05:15:14;;;;;;;10.02;2.17;;;9.60;99.90;;;;;;4986878;28;20552;-82
2022/12/24 05:17:40;;;;;;;15.43;2.08;;;9.60;99.90;;;;;;4990631;28;20554;-82
2022/12/24 05:20:06;;;;;;;9.85;1.80;;;9.70;99.90;;;;;;4981621;28;20134;-81
2022/12/24 05:28:00;;;;;;;18.75;3.17;;;9.70;99.90;;;;;;4986954;28;20167;-82
2022/12/24 05:30:26;;;;;;;7.80;0.98;;;9.70;99.90;;;;;;4982290;28;20113;-83
2022/12/24 05:32:51;;;;;;;10.45;2.75;;;9.70;99.90;;;;;;4984254;28;20026;-82
2022/12/24 05:35:17;;;;;;;17.73;2.85;;;9.80;99.90;;;;;;4987617;28;20534;-82
2022/12/24 05:37:42;;;;;;;6.70;1.45;;;9.80;99.90;;;;;;5001103;28;20033;-82
2022/12/24 05:40:08;;;;;;;23.75;3.58;;;9.80;99.90;;;;;;5002979;28;20040;-81
2022/12/24 05:42:34;;;;;;;11.88;1.98;;;9.80;99.90;;;;;;4985959;28;20382;-82
2022/12/24 05:44:59;;;;;;;4.75;1.38;;;9.80;99.90;;;;;;5006443;28;20026;-82
2022/12/24 05:47:25;;;;;;;7.72;1.92;;;9.80;99.90;;;;;;4989575;28;20188;-82
2022/12/24 05:49:50;;;;;;;9.32;2.20;;;9.80;99.90;;;;;;4971232;28;20521;-82
2022/12/24 05:52:16;;;;;;;8.50;1.95;;;9.80;99.90;;;;;;4997224;28;20537;-82
2022/12/24 05:54:42;;;;;;;15.85;3.28;;;9.80;99.90;;;;;;4983416;28;20117;-83
2022/12/24 05:57:07;;;;;;;14.02;2.38;;;9.80;99.90;;;;;;5000782;28;20041;-82
2022/12/24 05:59:33;;;;;;;6.68;1.83;;;9.80;99.90;;;;;;4986612;28;20029;-82
2022/12/24 06:01:58;;;;;;;9.55;1.55;;;9.80;99.90;;;;;;4971417;28;20030;-82
2022/12/24 06:04:24;;;;;;;8.40;1.92;;;9.80;99.90;;;;;;4985976;28;20046;-82
2022/12/24 06:06:49;;;;;;;13.85;1.52;;;9.70;99.90;;;;;;4983142;28;20041;-81
2022/12/24 06:09:16;;;;;;;5.63;1.30;;;9.80;99.90;;;;;;4986206;28;20092;-81
2022/12/24 06:11:41;;;;;;;11.45;2.33;;;9.80;99.90;;;;;;4985373;28;20062;-81
2022/12/24 06:14:07;;;;;;;8.55;1.92;;;9.80;99.90;;;;;;4997323;28;20054;-81
2022/12/24 06:16:32;;;;;;;14.63;0.95;;;9.80;99.90;;;;;;4990955;28;20026;-82
2022/12/24 06:18:58;;;;;;;14.13;2.15;;;9.80;99.90;;;;;;4996953;28;20049;-81
2022/12/24 06:21:23;;;;;;;14.70;2.25;;;9.80;99.90;;;;;;4997682;28;20520;-81
2022/12/24 06:23:49;;;;;;;21.30;3.83;;;9.80;99.90;;;;;;5000346;28;20073;-82
2022/12/24 06:26:19;;;;;;;15.90;2.40;;;9.80;99.90;;;;;;5002954;28;20134;-81
2022/12/24 06:28:46;;;;;;;26.13;2.47;;;9.80;99.90;;;;;;4986015;28;20038;-81
2022/12/24 06:31:13;;;;;;;14.60;2.15;;;9.80;99.90;;;;;;4982462;28;20034;-81
2022/12/24 06:33:39;;;;;;;7.07;2.45;;;9.80;99.90;;;;;;4974826;28;20514;-81
2022/12/24 06:36:18;;;;;;;13.80;2.33;;;9.80;99.90;;;;;;4988335;28;20046;-81
2022/12/24 06:38:45;;;;;;;8.02;1.75;;;9.80;99.90;;;;;;4998956;28;20113;-82
2022/12/24 06:41:10;;;;;;;12.93;2.30;;;9.80;99.90;;;;;;4988395;28;20486;-81
2022/12/24 06:43:36;;;;;;;18.40;1.83;;;9.80;99.90;;;;;;4997404;28;20037;-81
2022/12/24 06:46:02;;;;;;;14.80;2.70;;;9.80;99.90;;;;;;4981765;28;20039;-81
2022/12/24 06:48:27;;;;;;;13.90;2.38;;;9.80;99.90;;;;;;4988741;28;20508;-81
2022/12/24 06:50:53;;;;;;;14.90;1.83;;;9.80;99.90;;;;;;4989102;28;20034;-81
2022/12/24 06:53:18;;;;;;;14.25;2.17;;;9.80;99.90;;;;;;4966977;28;20061;-82
2022/12/24 06:55:44;;;;;;;6.60;1.65;;;9.80;99.90;;;;;;4996215;28;20040;-82
2022/12/24 06:58:11;;;;;;;13.75;2.72;;;9.80;99.90;;;;;;5002113;28;20108;-82
2022/12/24 07:00:36;;;;;;;8.57;2.58;;;9.80;99.90;;;;;;5002085;28;20517;-82
2022/12/24 07:03:02;;;;;;;9.35;2.22;;;9.80;99.90;;;;;;4983041;28;20038;-82
2022/12/24 07:05:28;;;;;;;24.08;3.90;;;9.70;99.90;;;;;;4970586;28;20030;-82
2022/12/24 07:07:53;;;;;;;12.63;2.10;;;9.70;99.90;;;;;;4988481;28;20076;-82
2022/12/24 07:10:19;;;;;;;12.90;2.00;;;9.70;99.90;;;;;;5005341;28;20069;-82
2022/12/24 07:12:44;;;;;;;9.20;2.60;;;9.70;99.90;;;;;;4980483;28;20034;-82
2022/12/24 07:15:10;;;;;;;8.52;3.50;;;9.70;99.90;;;;;;4974412;28;20026;-82
2022/12/24 07:17:36;;;;;;;17.13;3.65;;;9.70;99.90;;;;;;5000817;28;20443;-82
2022/12/24 07:20:02;;;;;;;19.08;2.30;;;9.70;99.90;;;;;;4977082;28;20037;-82
2022/12/24 07:22:28;;;;;;;18.60;4.25;;;9.70;99.90;;;;;;4996486;28;20062;-82
2022/12/24 07:24:54;;;;;;;16.67;2.45;;;9.70;99.90;;;;;;4983137;28;20115;-82
2022/12/24 07:27:20;;;;;;;20.48;3.03;;;9.80;99.90;;;;;;4987774;28;20510;-82
2022/12/24 07:29:45;;;;;;;12.10;2.05;;;9.80;99.90;;;;;;4983094;28;20043;-82
2022/12/24 07:32:11;;;;;;;12.70;2.95;;;9.80;99.90;;;;;;4984238;28;20030;-82
2022/12/24 07:34:38;;;;;;;6.28;1.67;;;9.80;99.90;;;;;;5002655;28;20030;-83
2022/12/24 07:37:04;;;;;;;19.33;4.07;;;9.80;99.90;;;;;;4973660;28;20043;-83
2022/12/24 07:39:30;;;;;;;21.27;3.65;;;9.80;99.90;;;;;;4989714;28;20034;-82
2022/12/24 07:41:56;;;;;;;23.40;4.35;;;9.80;99.90;;;;;;4972136;28;20081;-83
2022/12/24 07:44:23;;;;;;;18.20;4.20;;;9.80;99.90;;;;;;5004992;28;20062;-82
2022/12/24 07:46:49;;;;;;;16.23;2.72;;;9.80;99.90;;;;;;4971618;28;20121;-82
2022/12/24 07:49:15;;;;;;;15.52;2.45;;;9.70;99.90;;;;;;4998514;28;20150;-83
2022/12/24 07:51:40;;;;;;;11.57;2.67;;;9.80;99.90;;;;;;4991726;28;20038;-82
2022/12/24 07:54:06;;;;;;;18.45;3.42;;;9.80;99.90;;;;;;5002101;28;20486;-83
2022/12/24 07:56:31;;;;;;;17.10;2.90;;;9.70;99.90;;;;;;4988359;28;20681;-82
2022/12/24 07:58:57;;;;;;;19.20;2.97;;;9.70;99.90;;;;;;4987268;28;20433;-83
2022/12/24 08:01:22;;;;;;;22.63;3.75;;;9.70;99.90;;;;;;4992162;28;20099;-81
2022/12/24 08:03:50;;;;;;;13.80;2.95;;;9.70;99.90;;;;;;4981453;28;20045;-83
2022/12/24 08:06:15;;;;;;;8.52;1.65;;;9.70;99.90;;;;;;5003445;28;20037;-82
2022/12/24 08:08:41;;;;;;;16.30;3.30;;;9.60;99.90;;;;;;5004299;28;20401;-81
2022/12/24 08:11:07;;;;;;;21.27;3.78;;;9.70;99.90;;;;;;4991367;28;20529;-82
2022/12/24 08:13:32;;;;;;;13.70;2.40;;;9.70;99.90;;;;;;4976622;28;20181;-82
2022/12/24 08:15:58;;;;;;;39.08;3.90;;;9.60;99.90;;;;;;5003934;28;20038;-82
2022/12/24 08:18:24;;;;;;;14.82;3.05;;;9.70;99.90;;;;;;4991829;28;20572;-81
2022/12/24 08:20:49;;;;;;;14.50;3.30;;;9.60;99.90;;;;;;4978546;28;20841;-81
2022/12/24 08:23:15;;;;;;;14.05;3.05;;;9.60;99.90;;;;;;4991686;28;20041;-82
2022/12/24 08:25:44;;;;;;;34.50;4.80;;;9.70;99.90;;;;;;4990515;28;20080;-81
2022/12/24 08:28:10;;;;;;;20.73;4.10;;;9.70;99.90;;;;;;4983242;28;20373;-81
2022/12/24 08:30:36;;;;;;;21.88;3.10;;;9.70;99.90;;;;;;4985119;28;20030;-82
2022/12/24 08:33:01;;;;;;;17.73;3.33;;;9.70;99.90;;;;;;4983768;28;20108;-82
2022/12/24 08:35:27;;;;;;;9.18;1.80;;;9.60;99.90;;;;;;4982943;28;20058;-82
2022/12/24 08:37:52;;;;;;;22.42;3.60;;;9.60;99.90;;;;;;4971394;28;20099;-82
2022/12/24 08:40:18;;;;;;;22.98;3.40;;;9.70;99.90;;;;;;5004047;28;20033;-82
2022/12/24 08:42:43;;;;;;;20.67;2.67;;;9.70;99.90;;;;;;4993922;28;20022;-82
2022/12/24 08:45:10;;;;;;;23.48;3.33;;;9.60;99.90;;;;;;5001138;28;20030;-82
2022/12/24 08:47:36;;;;;;;15.00;3.17;;;9.60;99.90;;;;;;4979899;28;20040;-82
2022/12/24 08:50:03;;;;;;;15.27;2.78;;;9.60;99.90;;;;;;4989613;28;20033;-82
2022/12/24 08:52:28;;;;;;;22.13;2.45;;;9.70;99.90;;;;;;4986385;28;20061;-82
2022/12/24 08:54:55;;;;;;;28.77;4.15;;;9.70;99.90;;;;;;4984626;28;20417;-82
2022/12/24 08:57:21;;;;;;;28.15;5.95;;;9.70;99.90;;;;;;4973415;28;20110;-81
2022/12/24 08:59:46;;;;;;;17.15;2.42;;;9.70;99.90;;;;;;4994036;28;20116;-82
2022/12/24 09:02:12;;;;;;;13.27;3.05;;;9.70;99.90;;;;;;4990839;28;20038;-82
2022/12/24 09:04:40;;;;;;;18.58;3.22;;;9.70;99.90;;;;;;4995956;28;20034;-82
2022/12/24 09:07:07;;;;;;;37.28;5.80;;;9.70;99.90;;;;;;5009620;28;20124;-82
2022/12/24 09:09:32;;;;;;;22.40;3.08;;;9.70;99.90;;;;;;4991086;28;20152;-82
2022/12/24 09:11:58;;;;;;;27.63;3.47;;;9.70;99.90;;;;;;4979066;28;20040;-82
2022/12/24 09:14:23;;;;;;;23.63;3.90;;;9.70;99.90;;;;;;4982839;28;20533;-82
2022/12/24 09:16:49;;;;;;;26.23;4.35;;;9.60;99.90;;;;;;4991217;28;20034;-82
2022/12/24 09:19:14;;;;;;;18.10;3.50;;;9.70;99.90;;;;;;4980438;28;20362;-82
2022/12/24 09:21:40;;;;;;;18.88;3.75;;;9.70;99.90;;;;;;4990210;28;20031;-82
2022/12/24 09:24:06;;;;;;;25.85;4.85;;;9.70;99.90;;;;;;4976141;28;20053;-82
2022/12/24 09:26:31;;;;;;;23.00;2.92;;;9.80;99.90;;;;;;4969125;28;20038;-82
2022/12/24 09:28:59;;;;;;;17.80;3.33;;;9.80;99.90;;;;;;4974078;28;20263;-82
2022/12/24 09:31:25;;;;;;;21.50;2.92;;;9.80;99.90;;;;;;4998226;28;20748;-82
2022/12/24 09:33:50;;;;;;;25.23;4.07;;;9.80;99.90;;;;;;4979301;28;20209;-81
2022/12/24 09:36:17;;;;;;;6.38;2.78;;;9.80;99.90;;;;;;5003414;28;20041;-82
2022/12/24 09:38:42;;;;;;;13.52;2.55;;;9.90;99.90;;;;;;5003277;28;20316;-82
2022/12/24 09:41:12;;;;;;;16.60;2.58;;;10.00;99.90;;;;;;4982028;28;20058;-82
2022/12/24 09:43:37;;;;;;;7.65;0.88;;;10.10;99.90;;;;;;4983128;28;20121;-83
2022/12/24 09:46:12;;;;;;;17.73;3.58;;;10.10;99.90;;;;;;4974034;28;20460;-82
2022/12/24 09:48:40;;;;;;;16.20;3.22;;;10.10;99.90;;;;;;4971079;28;20600;-82
2022/12/24 09:51:11;;;;;;;36.30;4.88;;;10.20;99.90;;;;;;4976110;28;20037;-82
2022/12/24 09:53:44;;;;;;;17.98;3.75;;;10.30;99.90;;;;;;4971721;28;20030;-82
2022/12/24 09:56:32;;;;;;;17.17;3.15;;;10.40;99.90;;;;;;4984797;28;20034;-82
2022/12/24 09:58:59;;;;;;;18.25;3.97;;;10.50;99.90;;;;;;5016631;28;20381;-81
2022/12/24 10:01:25;;;;;;;11.48;3.33;;;10.50;99.90;;;;;;5005989;28;20058;-82
2022/12/24 10:03:51;;;;;;;16.52;3.65;;;10.50;99.90;;;;;;5005210;28;20049;-80
2022/12/24 10:06:23;;;;;;;15.05;3.22;;;10.60;99.90;;;;;;4974892;28;20497;-80
2022/12/24 10:09:16;;;;;;;29.92;5.00;;;10.60;99.90;;;;;;4969229;28;20442;-80
2022/12/24 10:11:47;;;;;;;17.00;2.80;;;10.60;99.90;;;;;;5004014;28;20037;-80
2022/12/24 10:14:37;;;;;;;23.75;5.75;;;10.60;99.90;;;;;;5005583;28;20068;-80
2022/12/24 10:17:41;;;;;;;24.83;4.45;;;10.60;99.90;;;;;;5001714;28;20559;-81
2022/12/24 10:20:13;;;;;;;22.27;4.20;;;10.60;99.90;;;;;;5005504;28;20034;-80
2022/12/24 10:23:06;;;;;;;15.25;2.85;;;10.70;99.90;;;;;;4989220;28;20059;-81
2022/12/24 10:25:45;;;;;;;23.95;3.95;;;10.70;99.90;;;;;;4991228;28;20046;-81
2022/12/24 10:28:27;;;;;;;12.65;2.15;;;10.70;99.90;;;;;;4987531;28;20038;-80
2022/12/24 10:30:56;;;;;;;15.40;2.60;;;10.70;99.90;;;;;;4988962;28;20486;-81
2022/12/24 10:33:28;;;;;;;14.68;3.25;;;10.80;99.90;;;;;;4982920;28;20029;-81
2022/12/24 10:35:54;;;;;;;19.85;2.67;;;10.80;99.90;;;;;;4968156;28;20492;-81
2022/12/24 10:38:19;;;;;;;20.20;3.58;;;10.80;99.90;;;;;;4987492;28;20112;-81
2022/12/24 10:40:47;;;;;;;20.73;2.72;;;10.80;99.90;;;;;;4997839;28;20031;-81
2022/12/24 10:43:17;;;;;;;25.13;3.30;;;10.90;99.90;;;;;;4973472;28;20100;-81
2022/12/24 10:45:50;;;;;;;28.05;4.75;;;10.90;99.90;;;;;;4990613;28;20116;-80
2022/12/24 10:48:21;;;;;;;19.65;2.95;;;11.00;99.90;;;;;;4968779;28;20100;-81
2022/12/24 10:50:58;;;;;;;11.60;2.15;;;11.10;99.90;;;;;;4997693;28;20117;-81
2022/12/24 10:53:32;;;;;;;10.93;2.28;;;11.10;99.90;;;;;;5003165;28;20413;-81
2022/12/24 10:56:05;;;;;;;24.27;4.15;;;11.10;99.90;;;;;;5002920;28;20034;-80
2022/12/24 10:58:32;;;;;;;11.90;2.00;;;11.20;99.90;;;;;;4985821;28;20030;-81
2022/12/24 11:00:58;;;;;;;22.85;3.80;;;11.30;99.90;;;;;;4987196;28;20421;-81
2022/12/24 11:03:31;;;;;;;22.52;3.20;;;11.30;99.90;;;;;;4976112;28;20018;-80
2022/12/24 11:06:05;;;;;;;22.05;3.85;;;11.40;99.90;;;;;;4977521;28;20124;-81
2022/12/24 11:08:33;;;;;;;24.23;4.93;;;11.40;99.90;;;;;;4996536;28;20691;-81
2022/12/24 11:11:00;;;;;;;15.30;3.35;;;11.50;99.90;;;;;;4976703;28;20026;-80
2022/12/24 11:13:28;;;;;;;10.52;3.30;;;11.50;99.90;;;;;;4974128;28;20505;-81
2022/12/24 11:16:22;;;;;;;16.15;4.82;;;11.60;99.90;;;;;;4994925;28;20129;-81
2022/12/24 11:18:52;;;;;;;27.83;5.32;;;11.60;99.90;;;;;;4982338;28;20049;-81
2022/12/24 11:21:22;;;;;;;23.65;3.72;;;11.70;99.90;;;;;;5003997;28;20433;-81
2022/12/24 11:23:55;;;;;;;17.70;3.75;;;11.70;99.90;;;;;;4989253;28;20050;-81
2022/12/24 11:26:38;;;;;;;13.55;2.85;;;11.70;99.90;;;;;;4986845;28;20115;-81
2022/12/24 11:29:15;;;;;;;11.77;2.60;;;11.70;99.90;;;;;;5009222;28;20088;-81
2022/12/24 11:31:44;;;;;;;24.95;4.50;;;11.80;99.90;;;;;;5021339;28;20374;-81
2022/12/24 11:34:21;;;;;;;28.33;5.28;;;11.80;99.90;;;;;;5006796;28;20038;-81
2022/12/24 11:36:47;;;;;;;27.38;3.97;;;11.80;99.90;;;;;;4980117;28;20045;-81
2022/12/24 11:39:21;;;;;;;20.13;2.85;;;11.80;99.90;;;;;;5001379;28;20037;-82
2022/12/24 11:41:47;;;;;;;12.55;3.25;;;11.80;99.90;;;;;;4992419;28;20064;-81
2022/12/24 11:44:12;;;;;;;17.98;3.63;;;11.80;99.90;;;;;;4984504;28;20053;-81
2022/12/24 11:46:43;;;;;;;23.25;4.97;;;11.70;99.90;;;;;;5003948;28;20034;-81
2022/12/24 11:49:11;;;;;;;15.80;4.45;;;11.70;99.90;;;;;;4987053;28;20566;-81
2022/12/24 11:51:40;;;;;;;16.67;3.47;;;11.60;99.90;;;;;;5005176;28;20124;-81
2022/12/24 11:54:08;;;;;;;32.63;4.85;;;11.70;99.90;;;;;;4997405;28;20346;-81
2022/12/24 11:56:40;;;;;;;22.58;5.82;;;11.70;99.90;;;;;;4999397;28;20529;-81
2022/12/24 11:59:14;;;;;;;18.85;3.80;;;11.80;99.90;;;;;;4972036;28;20485;-81
2022/12/24 12:01:58;;;;;;;20.75;4.22;;;11.70;99.90;;;;;;4305879;28;10000299;-81
2022/12/24 12:04:26;;;;;;;21.45;4.30;;;11.70;99.90;;;;;;5006294;28;20049;-81
2022/12/24 12:06:55;;;;;;;22.80;4.05;;;11.70;99.90;;;;;;4996956;28;20065;-81
2022/12/24 12:09:38;;;;;;;35.63;5.75;;;11.70;99.90;;;;;;5005983;28;20057;-81
2022/12/24 12:12:08;;;;;;;11.23;2.95;;;11.70;99.90;;;;;;4991933;28;20047;-81
2022/12/24 12:14:56;;;;;;;40.90;5.82;;;11.70;99.90;;;;;;4988097;28;20493;-81
2022/12/24 12:17:29;;;;;;;22.55;4.03;;;11.80;99.90;;;;;;5019162;28;20041;-81
2022/12/24 12:19:58;;;;;;;23.98;3.80;;;11.70;99.90;;;;;;4988049;28;20403;-81
2022/12/24 12:22:51;;;;;;;25.42;5.43;;;11.70;99.90;;;;;;4984647;28;20035;-81
2022/12/24 12:25:22;;;;;;;20.95;3.13;;;11.70;99.90;;;;;;4991878;28;20570;-81
2022/12/24 12:27:50;;;;;;;27.85;6.05;;;11.70;99.90;;;;;;4991101;28;20081;-81
2022/12/24 12:30:17;;;;;;;17.92;3.30;;;11.70;99.90;;;;;;4989686;28;20037;-81
2022/12/24 12:33:01;;;;;;;26.75;4.57;;;11.70;99.90;;;;;;4977576;28;20038;-81
2022/12/24 12:35:38;;;;;;;26.42;4.25;;;11.70;99.90;;;;;;4986283;28;20041;-81
2022/12/24 12:38:05;;;;;;;7.43;1.33;;;11.70;99.90;;;;;;4979316;28;20498;-81
2022/12/24 12:40:42;;;;;;;8.07;2.58;;;11.70;99.90;;;;;;4999146;28;20026;-81
2022/12/24 12:43:47;;;;;;;20.83;3.60;;;11.70;99.90;;;;;;5008233;28;20037;-81
2022/12/24 12:46:27;;;;;;;13.32;2.85;;;11.70;99.90;;;;;;4986466;28;20042;-81
2022/12/24 12:48:59;;;;;;;20.95;3.90;;;11.70;99.90;;;;;;4985059;28;20085;-81
2022/12/24 12:51:52;;;;;;;18.85;3.78;;;11.60;99.90;;;;;;5001459;28;20397;-81
2022/12/24 12:54:42;;;;;;;23.15;4.80;;;11.60;99.90;;;;;;4991783;28;20038;-81
2022/12/24 12:57:12;;;;;;;12.02;1.92;;;11.70;99.90;;;;;;5006564;28;20037;-81
2022/12/24 12:59:51;;;;;;;11.75;2.22;;;11.70;99.90;;;;;;4975722;28;20030;-81
2022/12/24 13:02:36;;;;;;;20.30;3.53;;;11.70;99.90;;;;;;4988621;28;20061;-81
2022/12/24 13:05:33;;;;;;;16.85;2.88;;;11.70;99.90;;;;;;4991085;28;20038;-81